Flight Track Log - Related Links

Times and Time Zones

All times are in EST time to prevent confusion due to time zone crossing. See the AWE1768 flight status page for this flight to view local times or setup timezone preferences in your user account.

Time Position Orientation Groundspeed Altitude Reporting Facility
EST Latitude Longitude Course Direction KTS MPH feet Rate Location/Type
Thu 09:25:53 PM 35.2790 -80.8496 219° Southwest  Level FlightAware Approximate
Thu 09:29:49 PM 35.1939 -80.9331 174° South 166 191 1,700  Level FAA TRACON SMA TRACON (SMA)
Thu 09:30:08 PM 35.1800 -80.9314 168° South 161 185 2,500 2,250 Climbing FAA TRACON SMA TRACON (SMA)
Thu 09:30:29 PM 35.1614 -80.9264 126° Southeast 177 204 3,200 2,100 Climbing FAA TRACON SMA TRACON (SMA)
Thu 09:30:48 PM 35.1514 -80.9097 95° East 195 224 3,900 2,769 Climbing FAA TRACON SMA TRACON (SMA)
Thu 09:31:08 PM 35.1492 -80.8814 69° East 216 249 5,000 3,220 Climbing FAA TRACON SMA TRACON (SMA)
Thu 09:31:29 PM 35.1558 -80.8603 44° Northeast 225 259 6,100 2,634 Climbing FAA TRACON SMA TRACON (SMA)
Thu 09:31:49 PM 35.1703 -80.8431 44° Northeast 236 272 6,800 2,154 Climbing FAA TRACON SMA TRACON (SMA)
Thu 09:32:08 PM 35.1906 -80.8192 223° Southwest 259 298 7,500 1,579 Climbing FAA TRACON SMA TRACON (SMA)
Thu 09:32:08 PM 35.1839 -80.8267 49° Northeast 243 280 7,300 3,200 Descending Atlanta Center
Thu 09:33:08 PM 35.2361 -80.7533 49° Northeast 264 304 10,700 2,775 Climbing Atlanta Center
Thu 09:34:48 PM 35.3511 -80.5911 48° Northeast 372 428 14,700 2,250 Climbing FAA TRACON SMA TRACON (SMA)
Thu 09:35:08 PM 35.3619 -80.5761 50° Northeast 375 432 15,200 2,458 Climbing FAA TRACON SMA TRACON (SMA)
Thu 09:37:34 PM 35.5458 -80.3044 50° Northeast 395 455 21,500 2,417 Climbing Washington Center
Thu 09:38:34 PM 35.6186 -80.1989 50° Northeast 395 455 23,500 2,361 Climbing Washington Center
Thu 09:39:36 PM 35.6917 -80.0931 49° Northeast 405 466 26,300 1,750 Climbing Washington Center
Thu 09:40:34 PM 35.7644 -79.9897 51° Northeast 400 460 27,000 353 Climbing Washington Center
Thu 09:41:35 PM 35.8461 -79.8661 50° Northeast 430 495 27,000  Level Washington Center
Thu 09:42:35 PM 35.9186 -79.7597 50° Northeast 446 513 27,000  Level Washington Center
Thu 09:43:36 PM 36.0089 -79.6258 51° Northeast 465 535 27,000  Level Washington Center
Thu 09:44:37 PM 36.0814 -79.5167 50° Northeast 460 529 27,000  Level Washington Center
Thu 09:45:37 PM 36.1622 -79.3969 50° Northeast 455 524 27,000  Level Washington Center
Thu 09:46:34 PM 36.2456 -79.2750 50° Northeast 462 532 27,000  Level Washington Center
Thu 09:47:37 PM 36.3283 -79.1525 41° Northeast 462 532 27,000  Level Washington Center
Thu 09:48:34 PM 36.4253 -79.0483 38° Northeast 457 526 27,000  Level Washington Center
Thu 09:49:34 PM 36.5347 -78.9422 38° Northeast 451 519 27,000  Level Washington Center
Thu 09:50:34 PM 36.6356 -78.8431 40° Northeast 458 527 27,000  Level Washington Center
Thu 09:51:34 PM 36.7258 -78.7483 38° Northeast 453 521 27,000  Level Washington Center
Thu 09:52:36 PM 36.8222 -78.6536 39° Northeast 453 521 27,000  Level Washington Center
Thu 09:53:37 PM 36.9228 -78.5511 38° Northeast 453 521 27,000  Level Washington Center
Thu 09:54:34 PM 37.0339 -78.4433 39° Northeast 453 521 27,000  Level Washington Center
Thu 09:55:36 PM 37.1342 -78.3431 39° Northeast 458 527 27,000  Level Washington Center
Thu 09:56:34 PM 37.2347 -78.2422 39° Northeast 453 521 27,000  Level Washington Center
Thu 09:57:35 PM 37.3200 -78.1539 38° Northeast 453 521 27,000  Level Washington Center
Thu 09:58:34 PM 37.4200 -78.0550 40° Northeast 446 513 27,000  Level Washington Center
Thu 09:59:34 PM 37.5181 -77.9508 37° Northeast 452 520 27,000  Level Washington Center
Thu 10:00:34 PM 37.6203 -77.8519 40° Northeast 452 520 27,000 -1,200 Level Washington Center
Thu 10:01:34 PM 37.7181 -77.7497 39° Northeast 452 520 24,600 -2,650 Descending Washington Center
Thu 10:02:34 PM 37.8136 -77.6500 38° Northeast 452 520 21,700 -2,754 Descending Washington Center
Thu 10:03:36 PM 37.9069 -77.5578 39° Northeast 441 507 19,000 -2,439 Descending Washington Center
Thu 10:04:37 PM 37.9958 -77.4653 39° Northeast 424 488 16,700 -2,700 Descending Washington Center
Thu 10:05:36 PM 38.0933 -77.3647 39° Northeast 412 474 13,600 -2,695 Descending Washington Center
Thu 10:06:35 PM 38.1803 -77.2744 40° Northeast 406 467 11,400 -1,627 Descending Washington Center
Thu 10:07:34 PM 38.2606 -77.1889 22° Northeast 396 456 10,400 -694 Descending Washington Center
Thu 10:08:36 PM 38.3550 -77.1406 North 364 419 10,000 -197 Descending Washington Center
Thu 10:09:36 PM 38.4533 -77.1242 10° North 352 405 10,000 -50 Level Washington Center
Thu 10:10:35 PM 38.5536 -77.1022 349° North 352 405 9,900 -50 Descending Washington Center
Thu 10:11:35 PM 38.6367 -77.1225 350° North 332 382 9,900 -551 Level Washington Center
Thu 10:12:13 PM 38.6833 -77.1333 319° Northwest 266 306 9,000 -1,300 Descending Potomac TRACON
Thu 10:12:35 PM 38.6989 -77.1506 343° North 291 335 8,600 -1,807 Descending Washington Center
Thu 10:13:36 PM 38.7653 -77.1758 345° North 261 300 6,500 -2,211 Descending Washington Center
Thu 10:15:07 PM 38.8833 -77.2167 15° North 244 281 3,000 -1,391 Descending Potomac TRACON
Thu 10:16:07 PM 38.9333 -77.2000 72° East 218 251 3,000 -500 Level Potomac TRACON
Thu 10:17:07 PM 38.9500 -77.1333 72° East 201 231 2,000 -1,000 Descending Potomac TRACON

Login

Don't have an account? Register now (free) for customized features, flight alerts, and more!